Terminal Aerodrome Forecast
Issued by NWS

Home | Current Version | Previous Version | Text Only | Print | Product List | Glossary On
Versions: 1 2 3 4 5 6 7 8 9 10 11 12 13 14 15 16 17
035
FTUS44 KJAN 230520
TAFGTR
TAF
KGTR 230520Z 2306/2406 31006KT P6SM BKN008
     FM231300 31009KT P6SM BKN015
     FM231500 31010G23KT P6SM BKN025
     FM231700 30010G16KT P6SM SKC
     FM240000 VRB03KT P6SM SKC=

USA.gov is the U.S. government's official web portal to all federal, state and local government web resources and services.